Time;durP1;ratioP1;P1;durP2;ratioP2;P2;SDS_P1;SDS_P2;PMS_P1;PMS_P2;Temp;Humidity;BMP_temperature;BMP_pressure;BME280_temperature;BME280_humidity;BME280_pressure;Samples;Min_cycle;Max_cycle;Signal;HPM_P1;HPM_P2
2022/07/09 00:00:34;;;;;;;5.97;1.02;;;;;;;21.23;67.16;100991.84;5055501;28;20493;-86
2022/07/09 00:02:59;;;;;;;5.55;0.93;;;;;;;21.28;66.16;100992.03;5055290;28;20037;-81
2022/07/09 00:05:28;;;;;;;5.07;1.15;;;;;;;21.44;64.65;100996.88;5055123;28;20486;-83
2022/07/09 00:07:53;;;;;;;2.45;0.80;;;;;;;21.38;64.68;100986.94;5054699;28;20040;-86
2022/07/09 00:10:19;;;;;;;1.80;0.70;;;;;;;21.37;64.26;100983.44;5055477;28;20500;-81
2022/07/09 00:12:45;;;;;;;0.90;0.65;;;;;;;21.28;64.62;100990.16;5055609;28;20047;-86
2022/07/09 00:15:10;;;;;;;2.47;0.90;;;;;;;21.12;65.44;100985.31;5055330;28;20501;-84
2022/07/09 00:17:36;;;;;;;2.50;1.00;;;;;;;21.17;65.48;100981.97;5037203;28;20040;-88
2022/07/09 00:20:05;;;;;;;3.83;0.88;;;;;;;21.20;64.68;100981.53;5054806;28;20037;-84
2022/07/09 00:22:31;;;;;;;3.05;0.90;;;;;;;21.13;65.42;100982.41;5054576;28;20041;-85
2022/07/09 00:24:57;;;;;;;1.73;0.80;;;;;;;21.02;66.08;100982.25;5055152;28;20033;-82
2022/07/09 00:27:23;;;;;;;10.23;1.02;;;;;;;21.01;66.71;100980.63;5059074;28;20033;-85
2022/07/09 00:29:48;;;;;;;2.10;0.98;;;;;;;20.88;68.39;100978.81;5056127;28;20171;-86
2022/07/09 00:32:14;;;;;;;6.18;1.00;;;;;;;20.71;69.23;100974.19;5060471;28;20440;-83
2022/07/09 00:34:40;;;;;;;1.50;0.90;;;;;;;20.67;70.20;100975.66;5061058;28;20033;-83
2022/07/09 00:37:05;;;;;;;2.67;0.93;;;;;;;20.76;69.11;100969.78;5056587;28;20104;-86
2022/07/09 00:39:31;;;;;;;2.75;1.10;;;;;;;20.84;68.62;100968.72;5056986;28;20041;-85
2022/07/09 00:42:09;;;;;;;1.45;1.00;;;;;;;20.95;68.60;100966.13;5057496;28;20040;-84
2022/07/09 00:44:36;;;;;;;3.65;1.02;;;;;;;21.05;67.50;100968.31;5058009;28;20029;-84
2022/07/09 00:47:03;;;;;;;3.95;1.10;;;;;;;20.99;67.76;100959.25;5059261;28;20123;-84
2022/07/09 00:49:30;;;;;;;7.28;1.35;;;;;;;21.01;67.89;100962.53;5056811;28;20447;-85
2022/07/09 00:51:56;;;;;;;7.55;0.90;;;;;;;21.10;67.68;100958.59;5055088;28;20033;-86
2022/07/09 00:54:23;;;;;;;1.83;0.95;;;;;;;20.99;68.49;100956.56;5055241;28;20037;-87
2022/07/09 00:56:50;;;;;;;3.00;0.80;;;;;;;21.11;67.64;100962.91;5054440;28;20109;-82
2022/07/09 00:59:17;;;;;;;2.85;0.93;;;;;;;20.90;68.22;100963.28;5054492;28;20433;-85
2022/07/09 01:01:43;;;;;;;1.63;0.95;;;;;;;20.74;68.58;100966.50;5054867;28;20025;-86
2022/07/09 01:04:09;;;;;;;2.00;0.93;;;;;;;20.68;68.30;100959.28;5054749;28;20041;-87
2022/07/09 01:06:34;;;;;;;1.45;0.80;;;;;;;20.73;68.65;100955.94;5054692;28;20098;-83
2022/07/09 01:09:03;;;;;;;1.50;0.80;;;;;;;20.61;68.89;100961.19;5054113;28;20033;-88
2022/07/09 01:11:30;;;;;;;8.38;1.08;;;;;;;20.63;68.50;100959.94;5054821;28;20500;-83
2022/07/09 01:13:55;;;;;;;1.08;0.73;;;;;;;20.48;69.67;100955.91;5055058;28;20040;-85
2022/07/09 01:16:22;;;;;;;7.50;1.20;;;;;;;20.46;69.54;100955.28;5054519;28;20047;-83
2022/07/09 01:18:47;;;;;;;4.10;1.10;;;;;;;20.37;69.41;100949.31;5053710;28;20037;-84
2022/07/09 01:21:14;;;;;;;4.65;1.40;;;;;;;20.46;69.62;100947.19;5053807;28;20029;-87
2022/07/09 01:23:40;;;;;;;2.50;0.80;;;;;;;20.56;68.88;100947.53;5053504;28;20079;-83
2022/07/09 01:26:06;;;;;;;3.22;0.73;;;;;;;20.62;68.14;100944.81;5053885;28;20033;-84
2022/07/09 01:28:31;;;;;;;6.63;1.00;;;;;;;20.65;68.13;100948.94;5053684;28;20103;-83
2022/07/09 01:30:57;;;;;;;2.25;0.75;;;;;;;20.61;68.29;100945.84;5053286;28;20474;-84
2022/07/09 01:33:22;;;;;;;4.05;0.90;;;;;;;20.57;67.88;100949.22;5053407;28;20033;-83
2022/07/09 01:35:48;;;;;;;8.32;1.20;;;;;;;20.57;67.98;100949.22;5053726;28;20041;-83
2022/07/09 01:38:13;;;;;;;1.77;0.80;;;;;;;20.57;67.48;100950.03;5035193;28;20073;-85
2022/07/09 01:40:39;;;;;;;3.90;0.70;;;;;;;20.65;66.91;100951.63;5053022;28;20029;-84
2022/07/09 01:43:04;;;;;;;5.28;1.02;;;;;;;20.77;66.30;100949.91;5053166;28;20094;-82
2022/07/09 01:45:30;;;;;;;5.78;1.10;;;;;;;20.90;65.70;100944.41;5052961;28;20036;-84
2022/07/09 01:47:56;;;;;;;0.77;0.65;;;;;;;20.88;66.52;100943.00;5052847;28;20040;-84
2022/07/09 01:50:21;;;;;;;3.58;0.90;;;;;;;20.87;66.28;100947.53;5056518;28;20033;-84
2022/07/09 01:52:47;;;;;;;4.35;0.90;;;;;;;20.92;65.80;100952.25;5056959;28;20033;-84
2022/07/09 01:55:12;;;;;;;4.97;1.10;;;;;;;20.91;64.07;100948.75;5057128;28;20044;-84
2022/07/09 01:57:41;;;;;;;6.43;1.00;;;;;;;20.94;63.06;100947.50;5056589;28;20116;-83
2022/07/09 02:00:07;;;;;;;4.90;0.90;;;;;;;21.01;62.06;100949.06;5056424;28;20021;-84
2022/07/09 02:02:39;;;;;;;4.53;0.80;;;;;;;21.10;62.52;100947.81;5056586;28;20036;-84
2022/07/09 02:05:05;;;;;;;1.58;0.65;;;;;;;21.22;63.40;100947.06;5056910;28;20099;-83
2022/07/09 02:07:32;;;;;;;5.03;0.95;;;;;;;21.05;62.98;100950.28;5056560;28;20037;-82
2022/07/09 02:09:58;;;;;;;3.53;0.82;;;;;;;20.97;62.86;100949.75;5056548;28;20060;-84
2022/07/09 02:12:23;;;;;;;1.98;0.80;;;;;;;20.91;62.97;100945.25;5056556;28;20515;-85
2022/07/09 02:14:49;;;;;;;2.35;0.88;;;;;;;20.82;63.65;100955.44;5056567;28;20104;-86
2022/07/09 02:17:15;;;;;;;2.42;0.93;;;;;;;20.75;63.96;100951.97;5056665;28;20101;-86
2022/07/09 02:19:41;;;;;;;4.18;1.13;;;;;;;20.70;64.46;100949.13;5056552;28;20056;-87
2022/07/09 02:22:06;;;;;;;1.58;0.90;;;;;;;20.75;64.96;100951.16;5055346;28;20072;-82
2022/07/09 02:24:32;;;;;;;5.18;1.77;;;;;;;20.74;65.80;100958.41;5055784;28;20037;-84
2022/07/09 02:26:57;;;;;;;3.42;1.73;;;;;;;20.71;66.94;100961.56;5037911;28;20032;-86
2022/07/09 02:29:23;;;;;;;5.13;2.00;;;;;;;20.59;67.44;100963.28;5056284;28;20425;-83
2022/07/09 02:31:48;;;;;;;1.92;1.70;;;;;;;20.50;68.33;100964.56;5038483;28;20041;-83
2022/07/09 02:34:14;;;;;;;3.92;2.00;;;;;;;20.39;68.89;100968.78;5056536;28;20398;-85
2022/07/09 02:36:39;;;;;;;5.25;2.05;;;;;;;20.39;68.93;100970.63;5055941;28;20091;-86
2022/07/09 02:39:05;;;;;;;5.97;2.08;;;;;;;20.37;68.89;100972.72;5056092;28;20037;-82
2022/07/09 02:41:30;;;;;;;6.22;2.25;;;;;;;20.31;68.41;100976.28;5056253;28;20033;-86
2022/07/09 02:43:56;;;;;;;5.50;1.42;;;;;;;20.40;67.15;100983.06;5056035;28;20116;-86
2022/07/09 02:46:21;;;;;;;12.27;2.70;;;;;;;20.34;67.19;100976.69;5055658;28;20421;-83
2022/07/09 02:48:47;;;;;;;4.25;1.75;;;;;;;20.45;67.10;100983.25;5061340;28;20040;-82
2022/07/09 02:51:12;;;;;;;4.63;1.95;;;;;;;20.43;66.45;100985.31;5066883;28;20064;-80
2022/07/09 02:53:38;;;;;;;4.72;1.92;;;;;;;20.40;66.74;100983.06;5059285;28;20045;-81
2022/07/09 02:56:04;;;;;;;7.15;1.80;;;;;;;20.50;66.07;100994.19;5055926;28;20059;-82
2022/07/09 02:58:31;;;;;;;7.57;2.20;;;;;;;20.48;66.60;100990.91;5056181;28;20033;-82
2022/07/09 03:00:56;;;;;;;5.43;2.08;;;;;;;20.23;66.88;101000.72;5054991;28;20041;-84
2022/07/09 03:03:23;;;;;;;5.95;2.00;;;;;;;20.18;66.50;100998.66;5056216;28;20031;-80
2022/07/09 03:05:49;;;;;;;6.53;2.20;;;;;;;20.11;66.46;100985.25;5055972;28;20405;-82
2022/07/09 03:08:14;;;;;;;3.42;2.00;;;;;;;20.24;66.02;100999.69;5056256;28;20031;-83
2022/07/09 03:10:40;;;;;;;5.15;2.15;;;;;;;20.26;65.24;100994.91;5057072;28;20474;-86
2022/07/09 03:13:06;;;;;;;10.77;2.45;;;;;;;20.12;64.86;100994.94;5056756;28;20438;-81
2022/07/09 03:15:31;;;;;;;16.15;2.42;;;;;;;20.20;64.19;100995.75;5057312;28;20028;-82
2022/07/09 03:17:57;;;;;;;3.75;1.90;;;;;;;20.01;65.30;101001.00;5056503;28;20029;-83
2022/07/09 03:20:22;;;;;;;3.88;1.60;;;;;;;20.12;64.80;101016.47;5056300;28;20076;-88
2022/07/09 03:22:48;;;;;;;5.18;1.92;;;;;;;19.90;66.06;101006.19;5056288;28;20021;-87
2022/07/09 03:25:13;;;;;;;2.33;1.30;;;;;;;19.92;65.95;101009.53;5056467;28;20111;-86
2022/07/09 03:27:39;;;;;;;4.43;2.10;;;;;;;19.80;66.27;101003.94;5038213;28;20127;-84
2022/07/09 03:30:06;;;;;;;4.07;1.80;;;;;;;19.76;66.81;101001.88;5055570;28;20108;-81
2022/07/09 03:32:31;;;;;;;3.33;1.60;;;;;;;19.75;67.17;101003.78;5041243;28;20036;-83
2022/07/09 03:34:57;;;;;;;3.88;1.60;;;;;;;19.68;67.39;101002.94;5056089;28;20037;-82
2022/07/09 03:37:22;;;;;;;1.95;1.40;;;;;;;19.56;68.63;101008.13;5055823;28;20033;-83
2022/07/09 03:39:48;;;;;;;4.07;1.58;;;;;;;19.49;70.84;101003.78;5056062;28;20033;-85
2022/07/09 03:42:14;;;;;;;6.03;1.77;;;;;;;19.47;71.62;101006.69;5039724;28;20032;-84
2022/07/09 03:44:40;;;;;;;3.83;1.83;;;;;;;19.38;72.54;101007.09;5056728;28;20052;-83
2022/07/09 03:47:06;;;;;;;3.97;1.65;;;;;;;19.35;73.65;101012.88;5056683;28;20055;-82
2022/07/09 03:49:33;;;;;;;5.15;1.85;;;;;;;19.33;73.49;101009.56;5059555;28;20032;-81
2022/07/09 03:51:59;;;;;;;7.30;2.53;;;;;;;19.34;73.23;101011.22;5054924;28;20048;-82
2022/07/09 03:54:24;;;;;;;6.45;2.10;;;;;;;19.43;72.74;101010.84;5056135;28;20033;-85
2022/07/09 03:56:51;;;;;;;6.47;1.90;;;;;;;19.45;72.39;101002.56;5055629;28;20082;-88
2022/07/09 03:59:17;;;;;;;7.78;1.88;;;;;;;19.47;70.89;101003.19;5055798;28;20083;-86
2022/07/09 04:01:43;;;;;;;7.63;1.75;;;;;;;19.43;70.30;101010.84;5055756;28;20033;-82
2022/07/09 04:04:09;;;;;;;9.43;2.38;;;;;;;19.58;69.48;101006.06;5037572;28;20087;-85
2022/07/09 04:06:34;;;;;;;5.70;1.70;;;;;;;19.57;70.85;101006.28;5056803;28;20044;-86
2022/07/09 04:09:04;;;;;;;2.50;1.58;;;;;;;19.49;70.53;101003.78;5056403;28;20037;-83
2022/07/09 04:11:31;;;;;;;3.92;1.70;;;;;;;19.48;69.54;101007.53;5059194;28;20392;-82
2022/07/09 04:13:58;;;;;;;8.98;1.98;;;;;;;19.46;69.48;101007.72;5058627;28;20025;-86
2022/07/09 04:16:23;;;;;;;4.65;1.48;;;;;;;19.43;69.08;101005.44;5057014;28;20041;-85
2022/07/09 04:18:49;;;;;;;2.75;1.50;;;;;;;19.48;69.06;101008.34;5039992;28;20393;-85
2022/07/09 04:21:14;;;;;;;7.35;1.48;;;;;;;19.46;68.11;101005.03;5037666;28;20033;-83
2022/07/09 04:23:40;;;;;;;10.82;1.42;;;;;;;19.48;67.21;101008.34;5055435;28;20060;-82
2022/07/09 04:26:05;;;;;;;3.55;1.50;;;;;;;19.39;68.79;100998.00;5037473;28;20417;-81
2022/07/09 04:28:31;;;;;;;12.60;2.00;;;;;;;19.39;69.36;101003.38;5054143;28;20036;-83
2022/07/09 04:30:56;;;;;;;8.63;1.60;;;;;;;19.25;70.58;101004.41;5054769;28;20036;-82
2022/07/09 04:33:22;;;;;;;4.28;1.90;;;;;;;19.23;69.76;101004.59;5054894;28;20061;-86
2022/07/09 04:35:47;;;;;;;4.35;1.55;;;;;;;19.22;70.93;101012.88;5036559;28;20371;-82
2022/07/09 04:38:13;;;;;;;5.72;1.38;;;;;;;19.17;72.31;101008.13;5054216;28;20029;-82
2022/07/09 04:40:40;;;;;;;6.18;1.75;;;;;;;19.25;72.65;101012.47;5054318;28;20059;-86
2022/07/09 04:43:07;;;;;;;8.15;1.65;;;;;;;19.31;71.98;101006.25;5054373;28;20040;-84
2022/07/09 04:45:32;;;;;;;3.38;1.33;;;;;;;19.25;72.18;101012.47;5055873;28;20100;-85
2022/07/09 04:47:59;;;;;;;5.35;1.60;;;;;;;19.13;73.10;101009.56;5055208;28;20036;-90
2022/07/09 04:50:25;;;;;;;6.57;1.73;;;;;;;19.23;73.51;101014.50;5055994;28;20028;-83
2022/07/09 04:52:50;;;;;;;2.90;1.40;;;;;;;19.38;73.03;101015.16;5055590;28;20056;-85
2022/07/09 04:55:16;;;;;;;3.97;1.27;;;;;;;19.52;72.28;101016.84;5054791;28;20036;-87
2022/07/09 04:57:42;;;;;;;2.72;1.40;;;;;;;19.65;71.30;101013.31;5055267;28;20029;-84
2022/07/09 05:00:10;;;;;;;4.65;1.20;;;;;;;19.79;70.98;101015.75;5055164;28;20040;-82
2022/07/09 05:02:36;;;;;;;2.47;1.40;;;;;;;19.74;72.44;101012.03;5054295;28;20047;-87
2022/07/09 05:05:03;;;;;;;3.20;1.05;;;;;;;19.80;72.38;101009.34;5054509;28;20037;-84
2022/07/09 05:07:30;;;;;;;4.00;1.60;;;;;;;20.02;71.55;101010.72;5036723;28;20040;-87
2022/07/09 05:09:56;;;;;;;3.72;1.60;;;;;;;20.20;70.25;101017.28;5054336;28;20039;-88
2022/07/09 05:12:22;;;;;;;2.38;1.40;;;;;;;20.32;69.40;101015.59;5037627;28;20526;-85
2022/07/09 05:14:48;;;;;;;2.63;1.77;;;;;;;20.50;68.94;101015.75;5054859;28;20064;-86
2022/07/09 05:17:13;;;;;;;4.40;1.77;;;;;;;20.54;68.21;101015.09;5037487;28;20033;-82
2022/07/09 05:19:39;;;;;;;3.40;1.73;;;;;;;20.59;67.70;101017.13;5056868;28;20504;-82
2022/07/09 05:22:05;;;;;;;8.10;1.70;;;;;;;20.67;66.84;101019.59;5058251;28;20035;-79
2022/07/09 05:24:33;;;;;;;5.13;2.08;;;;;;;20.90;65.89;101011.78;5041994;28;20047;-83
2022/07/09 05:26:59;;;;;;;5.38;1.73;;;;;;;21.03;65.32;101016.25;5059708;28;20037;-83
2022/07/09 05:29:26;;;;;;;4.70;1.38;;;;;;;21.27;63.54;101011.94;5059498;28;20075;-83
2022/07/09 05:31:52;;;;;;;6.65;1.65;;;;;;;21.32;61.98;101014.78;5059642;28;20033;-85
2022/07/09 05:34:17;;;;;;;7.38;1.52;;;;;;;21.48;61.62;101011.53;5058597;28;20127;-86
2022/07/09 05:36:43;;;;;;;5.00;1.70;;;;;;;21.64;60.70;101013.69;5062567;28;20041;-86
2022/07/09 05:39:09;;;;;;;3.78;1.50;;;;;;;21.82;60.44;101012.88;5061498;28;20033;-81
2022/07/09 05:41:36;;;;;;;6.22;1.42;;;;;;;22.13;59.21;101021.69;5028886;28;20040;-89
2022/07/09 05:44:04;;;;;;;7.35;1.40;;;;;;;22.34;58.59;101022.28;5035226;28;20033;-87
2022/07/09 05:46:30;;;;;;;11.32;1.90;;;;;;;22.41;58.53;101036.50;5035209;28;20408;-88
2022/07/09 05:48:55;;;;;;;7.72;1.67;;;;;;;22.44;59.30;101039.59;5021685;28;20066;-87
2022/07/09 05:51:21;;;;;;;8.73;1.55;;;;;;;22.51;60.42;101039.50;5027567;28;20029;-88
2022/07/09 05:53:47;;;;;;;7.72;2.05;;;;;;;22.50;60.54;101032.47;5039164;28;20040;-91
2022/07/09 05:56:12;;;;;;;6.45;2.28;;;;;;;22.62;59.58;101036.88;5038372;28;20042;-86
2022/07/09 05:58:41;;;;;;;4.15;1.95;;;;;;;22.77;59.77;101036.47;5020741;28;20512;-91
2022/07/09 06:01:06;;;;;;;8.43;2.03;;;;;;;22.76;61.15;101032.13;5038042;28;20025;-86
2022/07/09 06:03:32;;;;;;;16.40;3.08;;;;;;;22.81;60.98;101028.72;5045597;28;20097;-87
2022/07/09 06:06:01;;;;;;;8.85;2.42;;;;;;;22.99;60.34;101029.50;5038510;28;20096;-88
2022/07/09 06:08:27;;;;;;;4.85;2.28;;;;;;;23.05;59.58;101034.00;5038219;28;20513;-89
2022/07/09 06:10:53;;;;;;;10.48;2.20;;;;;;;23.17;57.87;101039.41;5037367;28;20037;-86
2022/07/09 06:13:18;;;;;;;17.75;2.35;;;;;;;23.58;56.50;101042.09;5037931;28;20030;-87
2022/07/09 06:15:44;;;;;;;10.70;2.00;;;;;;;23.50;56.39;101041.59;5019913;28;20467;-85
2022/07/09 06:18:09;;;;;;;7.65;1.92;;;;;;;23.95;54.65;101039.13;5037379;28;20037;-89
2022/07/09 06:20:35;;;;;;;2.63;1.35;;;;;;;24.50;52.53;101034.09;5029999;28;20021;-86
2022/07/09 06:23:04;;;;;;;9.10;1.73;;;;;;;24.58;52.46;101041.84;5010501;28;20403;-83
2022/07/09 06:25:30;;;;;;;6.85;1.70;;;;;;;24.78;50.77;101036.81;5036620;28;20029;-85
2022/07/09 06:27:55;;;;;;;8.63;1.60;;;;;;;25.16;48.42;101033.44;5029770;28;20042;-87
2022/07/09 06:30:21;;;;;;;5.10;1.85;;;;;;;25.25;48.12;101042.84;5037120;28;20033;-86
2022/07/09 06:32:46;;;;;;;4.68;1.48;;;;;;;25.83;45.06;101050.56;5018437;28;20478;-84
2022/07/09 06:35:12;;;;;;;8.07;1.13;;;;;;;26.84;41.85;101051.88;4995842;28;20034;-85
2022/07/09 06:37:38;;;;;;;1.50;0.90;;;;;;;26.19;43.22;101044.56;5049218;28;20099;-88
2022/07/09 06:40:09;;;;;;;3.13;0.98;;;;;;;26.66;41.09;101046.75;5064486;28;20037;-83
2022/07/09 06:42:48;;;;;;;4.75;0.68;;;;;;;27.02;39.47;101054.22;5063129;28;20045;-82
2022/07/09 06:45:26;;;;;;;2.92;0.90;;;;;;;26.96;40.38;101055.25;5056629;28;20073;-82
2022/07/09 06:48:12;;;;;;;5.82;1.30;;;;;;;27.01;40.48;101047.13;5051586;23;20057;-84
2022/07/09 06:51:20;;;;;;;2.90;0.82;;;;;;;28.26;37.39;101050.25;5040380;28;20097;-81
2022/07/09 06:54:12;;;;;;;6.38;0.85;;;;;;;27.61;37.82;101062.38;5023424;28;20032;-81
2022/07/09 06:56:57;;;;;;;4.38;1.08;;;;;;;27.60;37.59;101055.31;5051415;28;20060;-86
2022/07/09 07:11:57;;;;;;;1.58;0.70;;;;;;;28.07;36.78;101047.97;5059965;28;20029;-86
2022/07/09 07:25:08;;;;;;;5.95;0.70;;;;;;;27.66;39.35;101055.06;5470005;23;20037;-83
2022/07/09 07:39:27;;;;;;;3.78;1.15;;;;;;;29.08;36.67;101050.22;4252194;26;20049;-85
2022/07/09 07:55:05;;;;;;;6.45;1.50;;;;;;;29.02;36.74;101051.31;5053867;28;20044;-86
2022/07/09 08:05:19;;;;;;;5.28;1.13;;;;;;;28.92;37.37;101041.22;4998457;28;20041;-83
2022/07/09 08:12:32;;;;;;;2.72;0.80;;;;;;;28.42;38.77;101044.59;4962745;28;20047;-86
2022/07/09 08:16:14;;;;;;;3.47;0.90;;;;;;;28.90;37.65;101037.91;5034075;22;20048;-84
2022/07/09 08:19:13;;;;;;;3.67;0.90;;;;;;;28.66;38.11;101050.44;5053795;28;20045;-86
2022/07/09 08:22:09;;;;;;;2.50;0.68;;;;;;;28.22;38.90;101031.72;5042404;28;20037;-82
2022/07/09 08:25:15;;;;;;;1.23;0.60;;;;;;;28.17;38.58;101033.59;4977324;28;20114;-85
2022/07/09 08:36:10;;;;;;;1.95;0.50;;;;;;;28.79;37.24;101033.56;5088424;22;20065;-83
2022/07/09 08:39:38;;;;;;;3.90;0.68;;;;;;;28.54;38.61;101033.44;5057396;28;20088;-83
2022/07/09 08:45:04;;;;;;;2.75;0.50;;;;;;;28.77;36.91;101037.66;4953135;28;20117;-86
2022/07/09 08:47:30;;;;;;;2.53;0.60;;;;;;;28.72;36.66;101031.09;4936599;29;20123;-84
2022/07/09 08:49:58;;;;;;;1.73;0.45;;;;;;;28.67;37.14;101020.16;4944236;28;20537;-83
2022/07/09 08:52:26;;;;;;;4.47;0.60;;;;;;;28.87;36.88;101041.19;4954678;28;20048;-84
2022/07/09 08:54:55;;;;;;;1.33;0.40;;;;;;;29.22;34.62;101033.06;4953950;29;20086;-84
2022/07/09 09:23:59;;;;;;;2.90;0.47;;;;;;;29.86;33.04;101026.19;4974060;28;20185;-87
2022/07/09 09:26:26;;;;;;;5.45;0.50;;;;;;;29.67;32.68;101015.00;4972550;28;20386;-88
2022/07/09 09:28:52;;;;;;;2.05;0.50;;;;;;;29.80;33.54;101016.34;4990263;28;20042;-87
2022/07/09 09:31:20;;;;;;;2.63;0.70;;;;;;;30.04;32.93;101015.47;4991301;28;20057;-89
2022/07/09 09:33:46;;;;;;;2.55;0.50;;;;;;;30.07;32.13;101022.28;4984384;28;20488;-86
2022/07/09 09:36:36;;;;;;;1.95;0.40;;;;;;;29.53;31.70;101019.41;4974757;28;20069;-89
2022/07/09 09:39:07;;;;;;;3.05;0.45;;;;;;;29.45;32.68;101011.75;4963585;28;20071;-88
2022/07/09 09:41:33;;;;;;;1.83;0.30;;;;;;;29.76;33.04;101002.44;4971892;28;20035;-86
2022/07/09 09:44:04;;;;;;;1.70;0.60;;;;;;;30.05;32.32;101005.34;4970461;28;20050;-85
2022/07/09 09:46:32;;;;;;;1.73;0.43;;;;;;;30.32;31.19;101004.97;4960326;28;20646;-84
2022/07/09 09:48:58;;;;;;;2.50;0.40;;;;;;;29.68;32.15;101016.63;4975390;28;20279;-92
2022/07/09 09:51:30;;;;;;;1.85;0.50;;;;;;;29.52;32.20;101006.84;4982781;28;20030;-86
2022/07/09 09:53:56;;;;;;;3.83;0.40;;;;;;;29.95;31.54;101022.63;4993700;28;20085;-86
2022/07/09 09:56:24;;;;;;;2.85;0.40;;;;;;;29.77;31.54;100999.41;4997819;28;20088;-89
2022/07/09 09:58:51;;;;;;;2.75;0.30;;;;;;;30.01;30.77;100991.44;4998307;28;20034;-93
2022/07/09 10:01:17;;;;;;;0.38;0.30;;;;;;;30.04;30.63;100998.25;4995185;28;20026;-87
2022/07/09 10:03:43;;;;;;;2.88;0.60;;;;;;;30.24;30.89;100993.50;4961216;29;20114;-85
2022/07/09 10:06:08;;;;;;;2.63;0.40;;;;;;;30.12;30.99;100995.78;4957098;29;20349;-91
2022/07/09 10:08:35;;;;;;;2.45;0.73;;;;;;;30.53;31.44;100995.56;4961862;28;20121;-89
2022/07/09 10:11:01;;;;;;;3.83;0.50;;;;;;;30.71;31.07;100992.19;4975487;28;20023;-88
2022/07/09 10:13:26;;;;;;;2.00;0.50;;;;;;;30.42;32.16;100988.53;4997355;28;20121;-87
2022/07/09 10:15:54;;;;;;;1.85;0.52;;;;;;;30.31;31.32;100992.38;4977705;28;20038;-89
2022/07/09 10:18:20;;;;;;;1.25;0.35;;;;;;;29.83;31.74;100986.56;4984834;28;20030;-92
2022/07/09 10:20:46;;;;;;;4.10;0.50;;;;;;;29.82;32.01;100982.19;4984045;28;20817;-88
2022/07/09 10:23:22;;;;;;;5.80;0.60;;;;;;;30.16;31.46;100980.41;4963602;28;20158;-92
2022/07/09 10:25:58;;;;;;;1.38;0.40;;;;;;;30.40;30.79;100986.06;4992182;28;20038;-80
2022/07/09 10:34:07;;;;;;;3.35;0.60;;;;;;;30.42;30.27;100992.09;4557866;26;20105;-90
2022/07/09 10:36:32;;;;;;;0.70;0.40;;;;;;;30.68;29.86;100987.28;4991791;28;20549;-88
2022/07/09 10:38:59;;;;;;;0.93;0.35;;;;;;;30.83;29.74;100987.16;4991136;28;20124;-87
2022/07/09 10:41:25;;;;;;;3.55;0.70;;;;;;;30.98;29.69;100991.75;4981111;28;20479;-87
2022/07/09 10:43:52;;;;;;;2.38;0.50;;;;;;;30.67;29.46;100985.63;5011528;28;20042;-86
2022/07/09 10:46:18;;;;;;;1.50;0.35;;;;;;;30.73;30.05;100979.03;5003101;28;20037;-86
2022/07/09 10:48:47;;;;;;;2.63;0.50;;;;;;;30.49;29.92;100967.16;5004814;28;20042;-83
2022/07/09 10:51:20;;;;;;;3.92;0.40;;;;;;;30.74;30.06;100967.78;5014747;28;20494;-88
2022/07/09 10:53:46;;;;;;;2.38;0.38;;;;;;;30.92;30.29;100966.31;5000053;28;20149;-87
2022/07/09 10:56:18;;;;;;;5.57;0.43;;;;;;;30.93;30.16;100962.44;4984343;28;20521;-86
2022/07/09 10:58:48;;;;;;;7.25;0.70;;;;;;;30.66;30.49;100956.63;4989764;28;20520;-84
2022/07/09 11:01:21;;;;;;;4.05;0.50;;;;;;;30.64;30.42;100970.59;4981013;28;20044;-87
2022/07/09 11:03:49;;;;;;;5.22;0.63;;;;;;;31.00;30.52;100957.50;4981080;28;20035;-85
2022/07/09 11:06:15;;;;;;;5.13;0.65;;;;;;;30.89;30.07;100958.63;4963375;28;20039;-86
2022/07/09 11:08:43;;;;;;;2.67;0.60;;;;;;;30.65;30.03;100955.00;4977471;28;20039;-82
2022/07/09 11:11:08;;;;;;;1.77;0.40;;;;;;;31.20;29.10;100951.81;4981411;28;20041;-84
2022/07/09 11:13:34;;;;;;;0.85;0.30;;;;;;;31.15;29.02;100965.59;4977965;28;20500;-85
2022/07/09 11:16:01;;;;;;;2.97;0.60;;;;;;;30.90;29.34;100938.38;4961498;28;20400;-85
2022/07/09 11:18:28;;;;;;;4.32;0.50;;;;;;;30.79;29.76;100939.59;4992052;28;20113;-86
2022/07/09 11:20:54;;;;;;;3.55;0.50;;;;;;;31.19;29.13;100939.22;4983388;28;20097;-86
2022/07/09 11:23:19;;;;;;;11.57;0.60;;;;;;;31.80;28.67;100927.63;4959517;28;20027;-86
2022/07/09 11:25:46;;;;;;;1.92;0.50;;;;;;;31.41;29.28;100930.53;4997405;28;20065;-86
2022/07/09 11:28:22;;;;;;;3.28;0.45;;;;;;;31.21;29.72;100937.03;4994373;28;20042;-86
2022/07/09 11:30:58;;;;;;;1.42;0.60;;;;;;;30.78;30.63;100921.53;4971505;28;20047;-84
2022/07/09 11:33:24;;;;;;;2.13;0.43;;;;;;;30.02;31.41;100922.00;4981023;28;20038;-84
2022/07/09 11:35:50;;;;;;;3.03;0.50;;;;;;;29.71;32.45;100910.34;4981484;28;20034;-83
2022/07/09 11:38:15;;;;;;;2.15;0.50;;;;;;;29.81;31.56;100908.66;4981756;28;20404;-85
2022/07/09 11:40:41;;;;;;;2.83;0.60;;;;;;;29.91;32.28;100901.28;4976060;28;20067;-86
2022/07/09 11:43:14;;;;;;;6.63;0.90;;;;;;;29.97;32.26;100918.44;4979717;28;20034;-84
2022/07/09 11:45:50;;;;;;;4.75;0.73;;;;;;;29.72;32.61;100902.97;4979923;28;20393;-83
2022/07/09 11:48:16;;;;;;;4.82;0.55;;;;;;;29.62;32.84;100895.63;4979923;28;20034;-86
2022/07/09 11:50:44;;;;;;;2.88;0.60;;;;;;;29.56;33.60;100888.56;4994808;28;20081;-87
2022/07/09 11:53:22;;;;;;;1.98;0.60;;;;;;;29.63;33.01;100902.72;4995874;28;20488;-87
2022/07/09 11:55:59;;;;;;;6.97;0.60;;;;;;;29.43;32.51;100888.31;4969732;28;20376;-87
2022/07/09 11:58:25;;;;;;;0.40;0.25;;;;;;;29.27;32.73;100890.25;4975857;28;20038;-86
2022/07/09 12:00:51;;;;;;;1.73;0.40;;;;;;;29.06;33.22;100886.75;4975819;28;20042;-88
2022/07/09 12:03:26;;;;;;;1.40;0.57;;;;;;;29.04;33.15;100883.44;4976197;28;20050;-86
2022/07/09 12:05:55;;;;;;;1.48;0.40;;;;;;;28.92;33.75;100882.94;4957891;28;20047;-88
2022/07/09 12:08:31;;;;;;;4.85;0.60;;;;;;;28.89;34.19;100888.13;4974094;28;20399;-87
2022/07/09 12:10:57;;;;;;;3.65;0.60;;;;;;;28.87;34.05;100887.59;4975132;28;20138;-86
2022/07/09 12:13:23;;;;;;;2.50;0.60;;;;;;;28.73;34.18;100873.69;4982226;28;20037;-84
2022/07/09 12:15:49;;;;;;;1.02;0.43;;;;;;;28.92;33.92;100866.56;4982409;28;20038;-84
2022/07/09 12:18:14;;;;;;;5.60;0.70;;;;;;;29.06;33.58;100864.09;4994512;28;20049;-85
2022/07/09 12:20:40;;;;;;;8.27;0.98;;;;;;;29.08;33.57;100865.44;4991601;28;20038;-85
2022/07/09 12:23:06;;;;;;;7.28;0.60;;;;;;;29.18;33.17;100859.97;4998944;28;20049;-83
2022/07/09 12:25:32;;;;;;;8.02;0.80;;;;;;;29.46;32.52;100860.47;5006117;28;20094;-84
2022/07/09 12:27:57;;;;;;;1.63;0.50;;;;;;;29.50;32.63;100867.00;5009407;28;20025;-86
2022/07/09 12:30:23;;;;;;;4.00;0.60;;;;;;;29.16;32.86;100853.97;4999348;28;20110;-88
2022/07/09 12:32:49;;;;;;;2.80;0.50;;;;;;;29.26;32.80;100860.53;4993645;28;20038;-83
2022/07/09 12:35:15;;;;;;;2.17;0.77;;;;;;;29.35;32.70;100848.75;4993597;28;20097;-87
2022/07/09 12:37:41;;;;;;;4.88;0.82;;;;;;;29.13;32.98;100840.84;4976542;28;20041;-85
2022/07/09 12:40:10;;;;;;;3.05;0.50;;;;;;;29.23;33.09;100857.19;4994495;28;20510;-86
2022/07/09 12:42:35;;;;;;;2.00;0.70;;;;;;;28.97;33.68;100844.69;4994449;28;20122;-86
2022/07/09 12:45:01;;;;;;;3.90;0.63;;;;;;;28.81;33.77;100837.63;4994379;28;20030;-86
2022/07/09 12:47:27;;;;;;;2.10;0.60;;;;;;;28.97;33.29;100841.97;4977000;28;20082;-84
2022/07/09 12:49:52;;;;;;;3.70;0.68;;;;;;;29.04;32.89;100845.25;4976010;28;20042;-87
2022/07/09 12:52:18;;;;;;;1.70;0.45;;;;;;;29.03;33.20;100835.44;4959475;28;20614;-88
2022/07/09 12:54:43;;;;;;;1.25;0.60;;;;;;;29.10;33.04;100835.94;4976748;28;20070;-86
2022/07/09 12:57:10;;;;;;;3.20;0.80;;;;;;;29.17;32.77;100832.91;4994288;28;20038;-85
2022/07/09 12:59:36;;;;;;;2.53;0.68;;;;;;;29.12;32.94;100833.78;4993504;28;20026;-85
2022/07/09 13:02:02;;;;;;;4.70;0.50;;;;;;;29.18;32.58;100832.66;4994357;28;20031;-85
2022/07/09 13:04:27;;;;;;;2.28;0.90;;;;;;;28.93;33.03;100824.53;4993424;28;20038;-86
2022/07/09 13:06:53;;;;;;;5.30;0.70;;;;;;;29.06;33.25;100840.34;4994781;28;20030;-85
2022/07/09 13:09:19;;;;;;;4.22;0.90;;;;;;;28.95;33.07;100816.88;4995268;28;20026;-85
2022/07/09 13:11:45;;;;;;;6.45;1.25;;;;;;;29.06;32.63;100814.97;5001268;28;20054;-86